sensor_id;sensor_type;location;lat;lon;timestamp;P1;durP1;ratioP1;P2;durP2;ratioP2
43664;SDS011;29263;48.172;11.484;2024-02-26T00:00:32;2.73;;;2.00;;
43664;SDS011;29263;48.172;11.484;2024-02-26T00:02:59;2.90;;;1.73;;
43664;SDS011;29263;48.172;11.484;2024-02-26T00:05:25;3.13;;;1.90;;
43664;SDS011;29263;48.172;11.484;2024-02-26T00:07:51;2.83;;;1.90;;
43664;SDS011;29263;48.172;11.484;2024-02-26T00:10:17;2.53;;;1.90;;
43664;SDS011;29263;48.172;11.484;2024-02-26T00:12:42;2.93;;;1.77;;
43664;SDS011;29263;48.172;11.484;2024-02-26T00:15:08;3.33;;;2.30;;
43664;SDS011;29263;48.172;11.484;2024-02-26T00:17:35;3.57;;;2.07;;
43664;SDS011;29263;48.172;11.484;2024-02-26T00:20:01;3.53;;;1.77;;
43664;SDS011;29263;48.172;11.484;2024-02-26T00:22:29;3.80;;;2.17;;
43664;SDS011;29263;48.172;11.484;2024-02-26T00:24:55;2.53;;;1.87;;
43664;SDS011;29263;48.172;11.484;2024-02-26T00:27:21;2.13;;;1.70;;
43664;SDS011;29263;48.172;11.484;2024-02-26T00:29:46;3.10;;;1.90;;
43664;SDS011;29263;48.172;11.484;2024-02-26T00:32:12;4.87;;;1.90;;
43664;SDS011;29263;48.172;11.484;2024-02-26T00:34:38;2.53;;;1.50;;
43664;SDS011;29263;48.172;11.484;2024-02-26T00:37:03;3.03;;;1.70;;
43664;SDS011;29263;48.172;11.484;2024-02-26T00:39:29;2.80;;;1.90;;
43664;SDS011;29263;48.172;11.484;2024-02-26T00:41:55;2.73;;;1.87;;
43664;SDS011;29263;48.172;11.484;2024-02-26T00:44:20;2.93;;;2.20;;
43664;SDS011;29263;48.172;11.484;2024-02-26T00:46:46;2.10;;;1.63;;
43664;SDS011;29263;48.172;11.484;2024-02-26T00:49:11;2.10;;;1.53;;
43664;SDS011;29263;48.172;11.484;2024-02-26T00:51:37;2.13;;;1.70;;
43664;SDS011;29263;48.172;11.484;2024-02-26T00:54:03;3.30;;;2.07;;
43664;SDS011;29263;48.172;11.484;2024-02-26T00:56:28;3.97;;;2.37;;
43664;SDS011;29263;48.172;11.484;2024-02-26T00:58:54;2.57;;;1.60;;
43664;SDS011;29263;48.172;11.484;2024-02-26T01:01:19;2.57;;;1.63;;
43664;SDS011;29263;48.172;11.484;2024-02-26T01:03:45;3.73;;;1.93;;
43664;SDS011;29263;48.172;11.484;2024-02-26T01:06:11;4.00;;;2.00;;
43664;SDS011;29263;48.172;11.484;2024-02-26T01:08:36;1.97;;;1.73;;
43664;SDS011;29263;48.172;11.484;2024-02-26T01:11:02;2.43;;;1.80;;
43664;SDS011;29263;48.172;11.484;2024-02-26T01:13:28;2.13;;;1.60;;
43664;SDS011;29263;48.172;11.484;2024-02-26T01:15:54;3.63;;;1.70;;
43664;SDS011;29263;48.172;11.484;2024-02-26T01:18:20;2.37;;;1.70;;
43664;SDS011;29263;48.172;11.484;2024-02-26T01:20:45;2.17;;;1.60;;
43664;SDS011;29263;48.172;11.484;2024-02-26T01:23:12;2.70;;;1.40;;
43664;SDS011;29263;48.172;11.484;2024-02-26T01:25:38;2.83;;;1.63;;
43664;SDS011;29263;48.172;11.484;2024-02-26T01:28:04;4.37;;;2.00;;
43664;SDS011;29263;48.172;11.484;2024-02-26T01:30:30;4.70;;;1.90;;
43664;SDS011;29263;48.172;11.484;2024-02-26T01:32:56;2.03;;;1.50;;
43664;SDS011;29263;48.172;11.484;2024-02-26T01:35:22;3.03;;;1.97;;
43664;SDS011;29263;48.172;11.484;2024-02-26T01:37:47;1.50;;;1.30;;
43664;SDS011;29263;48.172;11.484;2024-02-26T01:40:13;2.43;;;1.87;;
43664;SDS011;29263;48.172;11.484;2024-02-26T01:42:45;4.20;;;1.47;;
43664;SDS011;29263;48.172;11.484;2024-02-26T01:45:14;5.47;;;1.83;;
43664;SDS011;29263;48.172;11.484;2024-02-26T01:47:46;1.97;;;1.60;;
43664;SDS011;29263;48.172;11.484;2024-02-26T01:50:11;2.40;;;1.50;;
43664;SDS011;29263;48.172;11.484;2024-02-26T01:52:37;2.03;;;1.37;;
43664;SDS011;29263;48.172;11.484;2024-02-26T01:55:03;1.63;;;1.30;;
43664;SDS011;29263;48.172;11.484;2024-02-26T01:57:29;3.53;;;1.43;;
43664;SDS011;29263;48.172;11.484;2024-02-26T01:59:55;2.10;;;1.50;;
43664;SDS011;29263;48.172;11.484;2024-02-26T02:02:21;2.37;;;1.50;;
43664;SDS011;29263;48.172;11.484;2024-02-26T02:04:46;2.53;;;1.60;;
43664;SDS011;29263;48.172;11.484;2024-02-26T02:07:12;4.13;;;1.53;;
43664;SDS011;29263;48.172;11.484;2024-02-26T02:09:38;2.10;;;1.50;;
43664;SDS011;29263;48.172;11.484;2024-02-26T02:12:03;2.50;;;1.53;;
43664;SDS011;29263;48.172;11.484;2024-02-26T02:14:31;1.43;;;1.10;;
43664;SDS011;29263;48.172;11.484;2024-02-26T02:16:56;2.07;;;1.40;;
43664;SDS011;29263;48.172;11.484;2024-02-26T02:19:22;1.80;;;1.57;;
43664;SDS011;29263;48.172;11.484;2024-02-26T02:21:47;2.40;;;1.50;;
43664;SDS011;29263;48.172;11.484;2024-02-26T02:24:13;2.13;;;1.67;;
43664;SDS011;29263;48.172;11.484;2024-02-26T02:26:39;1.93;;;1.20;;
43664;SDS011;29263;48.172;11.484;2024-02-26T02:29:04;2.60;;;1.73;;
43664;SDS011;29263;48.172;11.484;2024-02-26T02:31:31;1.57;;;1.43;;
43664;SDS011;29263;48.172;11.484;2024-02-26T02:33:57;2.43;;;1.53;;
43664;SDS011;29263;48.172;11.484;2024-02-26T02:36:23;2.20;;;1.37;;
43664;SDS011;29263;48.172;11.484;2024-02-26T02:38:49;2.63;;;1.47;;
43664;SDS011;29263;48.172;11.484;2024-02-26T02:41:15;2.77;;;1.43;;
43664;SDS011;29263;48.172;11.484;2024-02-26T02:43:41;1.97;;;1.43;;
43664;SDS011;29263;48.172;11.484;2024-02-26T02:46:07;2.50;;;1.53;;
43664;SDS011;29263;48.172;11.484;2024-02-26T02:48:32;1.37;;;1.20;;
43664;SDS011;29263;48.172;11.484;2024-02-26T02:50:58;1.80;;;1.20;;
43664;SDS011;29263;48.172;11.484;2024-02-26T02:53:23;2.60;;;1.50;;
43664;SDS011;29263;48.172;11.484;2024-02-26T02:55:49;1.93;;;1.33;;
43664;SDS011;29263;48.172;11.484;2024-02-26T02:58:15;2.07;;;1.20;;
43664;SDS011;29263;48.172;11.484;2024-02-26T03:00:40;2.17;;;1.40;;
43664;SDS011;29263;48.172;11.484;2024-02-26T03:03:06;1.97;;;1.50;;
43664;SDS011;29263;48.172;11.484;2024-02-26T03:05:31;1.33;;;1.23;;
43664;SDS011;29263;48.172;11.484;2024-02-26T03:07:57;2.30;;;1.40;;
43664;SDS011;29263;48.172;11.484;2024-02-26T03:10:23;2.47;;;1.60;;
43664;SDS011;29263;48.172;11.484;2024-02-26T03:12:49;2.37;;;1.70;;
43664;SDS011;29263;48.172;11.484;2024-02-26T03:15:15;1.53;;;1.43;;
43664;SDS011;29263;48.172;11.484;2024-02-26T03:17:41;2.57;;;1.10;;
43664;SDS011;29263;48.172;11.484;2024-02-26T03:20:06;3.23;;;1.33;;
43664;SDS011;29263;48.172;11.484;2024-02-26T03:22:33;1.80;;;1.13;;
43664;SDS011;29263;48.172;11.484;2024-02-26T03:24:59;1.60;;;1.30;;
43664;SDS011;29263;48.172;11.484;2024-02-26T03:27:25;2.10;;;1.40;;
43664;SDS011;29263;48.172;11.484;2024-02-26T03:29:50;2.13;;;1.37;;
43664;SDS011;29263;48.172;11.484;2024-02-26T03:32:17;3.20;;;1.60;;
43664;SDS011;29263;48.172;11.484;2024-02-26T03:34:43;3.43;;;1.50;;
43664;SDS011;29263;48.172;11.484;2024-02-26T03:37:08;1.80;;;1.30;;
43664;SDS011;29263;48.172;11.484;2024-02-26T03:39:35;2.27;;;1.17;;
43664;SDS011;29263;48.172;11.484;2024-02-26T03:42:01;2.30;;;1.50;;
43664;SDS011;29263;48.172;11.484;2024-02-26T03:44:27;2.80;;;1.20;;
43664;SDS011;29263;48.172;11.484;2024-02-26T03:46:53;2.80;;;1.30;;
43664;SDS011;29263;48.172;11.484;2024-02-26T03:49:18;1.30;;;1.20;;
43664;SDS011;29263;48.172;11.484;2024-02-26T03:51:44;2.10;;;1.40;;
43664;SDS011;29263;48.172;11.484;2024-02-26T03:54:10;1.80;;;1.03;;
43664;SDS011;29263;48.172;11.484;2024-02-26T03:56:35;2.97;;;1.40;;
43664;SDS011;29263;48.172;11.484;2024-02-26T03:59:01;2.40;;;1.50;;
43664;SDS011;29263;48.172;11.484;2024-02-26T04:01:27;1.70;;;1.37;;
43664;SDS011;29263;48.172;11.484;2024-02-26T04:03:53;1.30;;;1.10;;
43664;SDS011;29263;48.172;11.484;2024-02-26T04:06:19;2.87;;;1.50;;
43664;SDS011;29263;48.172;11.484;2024-02-26T04:08:46;4.57;;;1.50;;
43664;SDS011;29263;48.172;11.484;2024-02-26T04:11:12;1.73;;;1.23;;
43664;SDS011;29263;48.172;11.484;2024-02-26T04:13:38;2.07;;;1.20;;
43664;SDS011;29263;48.172;11.484;2024-02-26T04:16:04;1.97;;;1.30;;
43664;SDS011;29263;48.172;11.484;2024-02-26T04:18:31;2.43;;;1.10;;
43664;SDS011;29263;48.172;11.484;2024-02-26T04:20:57;2.27;;;1.40;;
43664;SDS011;29263;48.172;11.484;2024-02-26T04:23:22;2.63;;;1.00;;
43664;SDS011;29263;48.172;11.484;2024-02-26T04:25:49;8.77;;;1.70;;
43664;SDS011;29263;48.172;11.484;2024-02-26T04:28:14;2.30;;;1.20;;
43664;SDS011;29263;48.172;11.484;2024-02-26T04:30:40;3.70;;;1.47;;
43664;SDS011;29263;48.172;11.484;2024-02-26T04:33:06;1.63;;;1.13;;
43664;SDS011;29263;48.172;11.484;2024-02-26T04:35:32;1.93;;;1.53;;
43664;SDS011;29263;48.172;11.484;2024-02-26T04:37:57;2.67;;;1.23;;
43664;SDS011;29263;48.172;11.484;2024-02-26T04:40:23;2.03;;;1.40;;
43664;SDS011;29263;48.172;11.484;2024-02-26T04:42:49;1.43;;;1.10;;
43664;SDS011;29263;48.172;11.484;2024-02-26T04:45:15;1.57;;;1.03;;
43664;SDS011;29263;48.172;11.484;2024-02-26T04:47:40;1.70;;;1.23;;
43664;SDS011;29263;48.172;11.484;2024-02-26T04:50:06;1.57;;;1.10;;
43664;SDS011;29263;48.172;11.484;2024-02-26T04:52:32;1.40;;;1.00;;
43664;SDS011;29263;48.172;11.484;2024-02-26T04:54:57;2.40;;;1.27;;
43664;SDS011;29263;48.172;11.484;2024-02-26T04:57:24;1.80;;;1.33;;
43664;SDS011;29263;48.172;11.484;2024-02-26T04:59:51;1.83;;;1.27;;
43664;SDS011;29263;48.172;11.484;2024-02-26T05:02:17;1.83;;;1.07;;
43664;SDS011;29263;48.172;11.484;2024-02-26T05:04:42;1.93;;;1.17;;
43664;SDS011;29263;48.172;11.484;2024-02-26T05:07:08;1.97;;;1.27;;
43664;SDS011;29263;48.172;11.484;2024-02-26T05:09:34;2.07;;;1.37;;
43664;SDS011;29263;48.172;11.484;2024-02-26T05:12:00;2.10;;;1.47;;
43664;SDS011;29263;48.172;11.484;2024-02-26T05:14:26;1.80;;;1.20;;
43664;SDS011;29263;48.172;11.484;2024-02-26T05:16:52;3.30;;;1.33;;
43664;SDS011;29263;48.172;11.484;2024-02-26T05:19:17;4.90;;;1.10;;
43664;SDS011;29263;48.172;11.484;2024-02-26T05:21:43;2.27;;;1.13;;
43664;SDS011;29263;48.172;11.484;2024-02-26T05:24:09;2.10;;;1.40;;
43664;SDS011;29263;48.172;11.484;2024-02-26T05:26:35;2.37;;;1.30;;
43664;SDS011;29263;48.172;11.484;2024-02-26T05:29:00;1.77;;;1.20;;
43664;SDS011;29263;48.172;11.484;2024-02-26T05:31:26;2.63;;;1.23;;
43664;SDS011;29263;48.172;11.484;2024-02-26T05:33:53;1.87;;;1.10;;
43664;SDS011;29263;48.172;11.484;2024-02-26T05:36:19;1.77;;;1.20;;
43664;SDS011;29263;48.172;11.484;2024-02-26T05:38:48;2.50;;;1.23;;
43664;SDS011;29263;48.172;11.484;2024-02-26T05:41:17;3.83;;;0.97;;
43664;SDS011;29263;48.172;11.484;2024-02-26T05:43:51;1.40;;;1.00;;
43664;SDS011;29263;48.172;11.484;2024-02-26T05:46:17;1.87;;;1.00;;
43664;SDS011;29263;48.172;11.484;2024-02-26T05:48:44;1.53;;;1.00;;
43664;SDS011;29263;48.172;11.484;2024-02-26T05:51:10;1.30;;;1.00;;
43664;SDS011;29263;48.172;11.484;2024-02-26T05:53:35;1.57;;;1.10;;
43664;SDS011;29263;48.172;11.484;2024-02-26T05:56:01;1.00;;;0.83;;
43664;SDS011;29263;48.172;11.484;2024-02-26T05:58:26;1.37;;;0.97;;
43664;SDS011;29263;48.172;11.484;2024-02-26T06:00:52;2.67;;;0.93;;
43664;SDS011;29263;48.172;11.484;2024-02-26T06:03:18;2.53;;;1.27;;
43664;SDS011;29263;48.172;11.484;2024-02-26T06:05:43;2.83;;;1.20;;
43664;SDS011;29263;48.172;11.484;2024-02-26T06:08:09;1.97;;;1.03;;
43664;SDS011;29263;48.172;11.484;2024-02-26T06:10:34;1.73;;;1.20;;
43664;SDS011;29263;48.172;11.484;2024-02-26T06:13:00;2.73;;;1.40;;
43664;SDS011;29263;48.172;11.484;2024-02-26T06:15:26;2.50;;;1.00;;
43664;SDS011;29263;48.172;11.484;2024-02-26T06:17:51;1.57;;;1.10;;
43664;SDS011;29263;48.172;11.484;2024-02-26T06:20:17;2.93;;;1.40;;
43664;SDS011;29263;48.172;11.484;2024-02-26T06:22:42;1.63;;;1.10;;
43664;SDS011;29263;48.172;11.484;2024-02-26T06:25:08;2.33;;;1.63;;
43664;SDS011;29263;48.172;11.484;2024-02-26T06:27:34;2.97;;;1.27;;
43664;SDS011;29263;48.172;11.484;2024-02-26T06:30:00;6.67;;;2.70;;
43664;SDS011;29263;48.172;11.484;2024-02-26T06:32:26;3.87;;;1.80;;
43664;SDS011;29263;48.172;11.484;2024-02-26T06:34:54;5.70;;;1.93;;
43664;SDS011;29263;48.172;11.484;2024-02-26T06:37:21;4.67;;;2.77;;
43664;SDS011;29263;48.172;11.484;2024-02-26T06:39:46;16.53;;;4.47;;
43664;SDS011;29263;48.172;11.484;2024-02-26T06:42:12;13.27;;;4.30;;
43664;SDS011;29263;48.172;11.484;2024-02-26T06:44:37;11.00;;;4.70;;
43664;SDS011;29263;48.172;11.484;2024-02-26T06:47:03;14.07;;;4.40;;
43664;SDS011;29263;48.172;11.484;2024-02-26T06:49:29;15.63;;;4.40;;
43664;SDS011;29263;48.172;11.484;2024-02-26T06:51:55;16.10;;;4.83;;
43664;SDS011;29263;48.172;11.484;2024-02-26T06:54:20;16.70;;;4.37;;
43664;SDS011;29263;48.172;11.484;2024-02-26T06:56:46;15.23;;;4.70;;
43664;SDS011;29263;48.172;11.484;2024-02-26T06:59:12;13.03;;;4.57;;
43664;SDS011;29263;48.172;11.484;2024-02-26T07:01:39;17.20;;;5.30;;
43664;SDS011;29263;48.172;11.484;2024-02-26T07:04:06;15.10;;;5.03;;
43664;SDS011;29263;48.172;11.484;2024-02-26T07:06:31;13.10;;;4.90;;
43664;SDS011;29263;48.172;11.484;2024-02-26T07:15:07;10.60;;;2.83;;
43664;SDS011;29263;48.172;11.484;2024-02-26T07:17:34;4.87;;;2.23;;
43664;SDS011;29263;48.172;11.484;2024-02-26T07:26:41;12.20;;;2.80;;
43664;SDS011;29263;48.172;11.484;2024-02-26T07:29:07;7.73;;;3.27;;
43664;SDS011;29263;48.172;11.484;2024-02-26T07:31:32;6.67;;;3.50;;
43664;SDS011;29263;48.172;11.484;2024-02-26T07:33:58;10.90;;;3.03;;
43664;SDS011;29263;48.172;11.484;2024-02-26T07:42:44;12.40;;;3.00;;
43664;SDS011;29263;48.172;11.484;2024-02-26T07:45:10;7.30;;;3.20;;
43664;SDS011;29263;48.172;11.484;2024-02-26T07:53:57;7.20;;;3.13;;
43664;SDS011;29263;48.172;11.484;2024-02-26T07:56:22;5.47;;;3.37;;
43664;SDS011;29263;48.172;11.484;2024-02-26T07:58:48;6.10;;;3.30;;
43664;SDS011;29263;48.172;11.484;2024-02-26T08:04:35;5.77;;;3.00;;
43664;SDS011;29263;48.172;11.484;2024-02-26T08:10:05;6.93;;;3.60;;
43664;SDS011;29263;48.172;11.484;2024-02-26T08:12:31;5.00;;;3.10;;
43664;SDS011;29263;48.172;11.484;2024-02-26T08:17:49;9.40;;;3.67;;
43664;SDS011;29263;48.172;11.484;2024-02-26T08:20:15;4.33;;;3.10;;
43664;SDS011;29263;48.172;11.484;2024-02-26T08:22:41;8.00;;;3.27;;
43664;SDS011;29263;48.172;11.484;2024-02-26T08:25:06;5.30;;;2.73;;
43664;SDS011;29263;48.172;11.484;2024-02-26T08:27:34;7.77;;;3.50;;
43664;SDS011;29263;48.172;11.484;2024-02-26T08:29:59;14.70;;;4.47;;
43664;SDS011;29263;48.172;11.484;2024-02-26T08:32:25;6.80;;;4.00;;
43664;SDS011;29263;48.172;11.484;2024-02-26T08:34:50;5.93;;;3.23;;
43664;SDS011;29263;48.172;11.484;2024-02-26T08:37:17;6.23;;;3.57;;
43664;SDS011;29263;48.172;11.484;2024-02-26T08:39:43;7.03;;;3.53;;
43664;SDS011;29263;48.172;11.484;2024-02-26T08:42:08;7.00;;;3.57;;
43664;SDS011;29263;48.172;11.484;2024-02-26T08:44:34;5.43;;;3.67;;
43664;SDS011;29263;48.172;11.484;2024-02-26T08:46:59;6.10;;;3.50;;
43664;SDS011;29263;48.172;11.484;2024-02-26T08:49:25;16.00;;;4.27;;
43664;SDS011;29263;48.172;11.484;2024-02-26T08:51:50;8.67;;;3.90;;
43664;SDS011;29263;48.172;11.484;2024-02-26T08:54:16;7.53;;;3.57;;
43664;SDS011;29263;48.172;11.484;2024-02-26T08:56:42;9.93;;;4.97;;
43664;SDS011;29263;48.172;11.484;2024-02-26T08:59:07;8.17;;;3.57;;
43664;SDS011;29263;48.172;11.484;2024-02-26T09:01:33;7.47;;;4.13;;
43664;SDS011;29263;48.172;11.484;2024-02-26T09:03:58;13.90;;;3.83;;
43664;SDS011;29263;48.172;11.484;2024-02-26T09:06:24;12.63;;;4.13;;
43664;SDS011;29263;48.172;11.484;2024-02-26T09:08:50;10.40;;;4.40;;
43664;SDS011;29263;48.172;11.484;2024-02-26T09:11:15;12.67;;;4.40;;
43664;SDS011;29263;48.172;11.484;2024-02-26T09:13:41;7.20;;;4.03;;
43664;SDS011;29263;48.172;11.484;2024-02-26T09:16:07;18.10;;;4.77;;
43664;SDS011;29263;48.172;11.484;2024-02-26T09:18:33;10.23;;;4.13;;
43664;SDS011;29263;48.172;11.484;2024-02-26T09:20:59;8.23;;;3.77;;
43664;SDS011;29263;48.172;11.484;2024-02-26T09:23:24;10.20;;;3.80;;
43664;SDS011;29263;48.172;11.484;2024-02-26T09:25:50;5.83;;;3.60;;
43664;SDS011;29263;48.172;11.484;2024-02-26T09:28:15;5.80;;;3.17;;
43664;SDS011;29263;48.172;11.484;2024-02-26T09:30:42;9.70;;;3.60;;
43664;SDS011;29263;48.172;11.484;2024-02-26T09:33:08;8.53;;;3.17;;
43664;SDS011;29263;48.172;11.484;2024-02-26T09:35:34;6.30;;;2.93;;
43664;SDS011;29263;48.172;11.484;2024-02-26T09:38:00;4.23;;;2.53;;
43664;SDS011;29263;48.172;11.484;2024-02-26T09:40:26;6.83;;;3.10;;
43664;SDS011;29263;48.172;11.484;2024-02-26T09:42:53;7.27;;;2.90;;
43664;SDS011;29263;48.172;11.484;2024-02-26T09:45:25;5.80;;;2.17;;
43664;SDS011;29263;48.172;11.484;2024-02-26T09:47:52;4.87;;;1.60;;
43664;SDS011;29263;48.172;11.484;2024-02-26T09:50:20;5.87;;;1.87;;
43664;SDS011;29263;48.172;11.484;2024-02-26T09:52:50;2.97;;;1.70;;
43664;SDS011;29263;48.172;11.484;2024-02-26T09:55:16;3.70;;;1.43;;
43664;SDS011;29263;48.172;11.484;2024-02-26T09:57:44;3.33;;;1.67;;
43664;SDS011;29263;48.172;11.484;2024-02-26T10:00:15;2.28;;;1.40;;
43664;SDS011;29263;48.172;11.484;2024-02-26T10:02:45;4.60;;;1.63;;
43664;SDS011;29263;48.172;11.484;2024-02-26T10:05:12;3.00;;;1.20;;
43664;SDS011;29263;48.172;11.484;2024-02-26T10:07:42;8.35;;;1.55;;
43664;SDS011;29263;48.172;11.484;2024-02-26T10:10:09;2.70;;;1.10;;
43664;SDS011;29263;48.172;11.484;2024-02-26T10:12:35;5.53;;;0.80;;
43664;SDS011;29263;48.172;11.484;2024-02-26T10:15:01;1.10;;;0.77;;
43664;SDS011;29263;48.172;11.484;2024-02-26T10:17:26;4.13;;;1.07;;
43664;SDS011;29263;48.172;11.484;2024-02-26T10:19:53;1.73;;;0.70;;
43664;SDS011;29263;48.172;11.484;2024-02-26T10:22:21;3.07;;;1.03;;
43664;SDS011;29263;48.172;11.484;2024-02-26T10:24:47;2.53;;;1.70;;
43664;SDS011;29263;48.172;11.484;2024-02-26T10:27:13;1.50;;;1.00;;
43664;SDS011;29263;48.172;11.484;2024-02-26T10:29:40;3.60;;;1.10;;
43664;SDS011;29263;48.172;11.484;2024-02-26T10:32:08;3.47;;;1.00;;
43664;SDS011;29263;48.172;11.484;2024-02-26T10:34:34;1.40;;;0.80;;
43664;SDS011;29263;48.172;11.484;2024-02-26T10:37:02;2.43;;;0.97;;
43664;SDS011;29263;48.172;11.484;2024-02-26T10:39:29;3.27;;;1.20;;
43664;SDS011;29263;48.172;11.484;2024-02-26T10:41:55;2.57;;;1.20;;
43664;SDS011;29263;48.172;11.484;2024-02-26T10:44:21;2.30;;;0.93;;
43664;SDS011;29263;48.172;11.484;2024-02-26T10:46:47;2.90;;;0.90;;
43664;SDS011;29263;48.172;11.484;2024-02-26T10:52:36;2.83;;;0.70;;
43664;SDS011;29263;48.172;11.484;2024-02-26T10:55:02;0.97;;;0.67;;
43664;SDS011;29263;48.172;11.484;2024-02-26T10:57:31;4.07;;;0.93;;
43664;SDS011;29263;48.172;11.484;2024-02-26T11:00:00;1.70;;;0.60;;
43664;SDS011;29263;48.172;11.484;2024-02-26T11:02:28;1.15;;;0.68;;
43664;SDS011;29263;48.172;11.484;2024-02-26T11:04:56;5.07;;;0.90;;
43664;SDS011;29263;48.172;11.484;2024-02-26T11:07:23;2.50;;;0.50;;
43664;SDS011;29263;48.172;11.484;2024-02-26T11:09:50;2.80;;;0.90;;
43664;SDS011;29263;48.172;11.484;2024-02-26T11:12:17;2.27;;;0.63;;
43664;SDS011;29263;48.172;11.484;2024-02-26T11:14:44;0.90;;;0.70;;
43664;SDS011;29263;48.172;11.484;2024-02-26T11:17:11;1.83;;;0.70;;
43664;SDS011;29263;48.172;11.484;2024-02-26T11:19:41;2.17;;;0.80;;
43664;SDS011;29263;48.172;11.484;2024-02-26T11:22:09;1.63;;;1.05;;
43664;SDS011;29263;48.172;11.484;2024-02-26T11:24:35;1.00;;;0.50;;
43664;SDS011;29263;48.172;11.484;2024-02-26T11:27:06;2.30;;;0.52;;
43664;SDS011;29263;48.172;11.484;2024-02-26T11:29:34;1.48;;;0.40;;
43664;SDS011;29263;48.172;11.484;2024-02-26T11:32:04;3.08;;;0.52;;
43664;SDS011;29263;48.172;11.484;2024-02-26T11:34:31;2.28;;;0.40;;
43664;SDS011;29263;48.172;11.484;2024-02-26T11:36:57;0.80;;;0.50;;
43664;SDS011;29263;48.172;11.484;2024-02-26T11:39:33;0.68;;;0.40;;
43664;SDS011;29263;48.172;11.484;2024-02-26T11:42:06;2.70;;;0.30;;
43664;SDS011;29263;48.172;11.484;2024-02-26T11:44:33;0.70;;;0.35;;
43664;SDS011;29263;48.172;11.484;2024-02-26T11:47:00;1.40;;;0.40;;
43664;SDS011;29263;48.172;11.484;2024-02-26T11:49:38;0.70;;;0.40;;
43664;SDS011;29263;48.172;11.484;2024-02-26T11:52:07;0.98;;;0.40;;
43664;SDS011;29263;48.172;11.484;2024-02-26T11:59:49;1.95;;;0.40;;
43664;SDS011;29263;48.172;11.484;2024-02-26T12:05:20;1.98;;;0.90;;
43664;SDS011;29263;48.172;11.484;2024-02-26T12:07:49;1.05;;;0.45;;
43664;SDS011;29263;48.172;11.484;2024-02-26T12:12:47;1.65;;;0.70;;
43664;SDS011;29263;48.172;11.484;2024-02-26T12:15:14;1.42;;;0.50;;
43664;SDS011;29263;48.172;11.484;2024-02-26T12:17:40;0.93;;;0.52;;
43664;SDS011;29263;48.172;11.484;2024-02-26T12:20:09;0.85;;;0.30;;
43664;SDS011;29263;48.172;11.484;2024-02-26T12:25:04;2.95;;;0.50;;
43664;SDS011;29263;48.172;11.484;2024-02-26T12:27:30;1.90;;;0.60;;
43664;SDS011;29263;48.172;11.484;2024-02-26T12:29:59;1.85;;;0.70;;
43664;SDS011;29263;48.172;11.484;2024-02-26T12:32:25;0.63;;;0.50;;
43664;SDS011;29263;48.172;11.484;2024-02-26T12:34:51;1.23;;;0.40;;
43664;SDS011;29263;48.172;11.484;2024-02-26T12:37:41;1.23;;;0.50;;
43664;SDS011;29263;48.172;11.484;2024-02-26T12:40:13;0.80;;;0.50;;
43664;SDS011;29263;48.172;11.484;2024-02-26T12:42:42;0.30;;;0.30;;
43664;SDS011;29263;48.172;11.484;2024-02-26T12:45:52;0.63;;;0.50;;
43664;SDS011;29263;48.172;11.484;2024-02-26T12:48:21;1.77;;;0.50;;
43664;SDS011;29263;48.172;11.484;2024-02-26T12:50:47;0.95;;;0.45;;
43664;SDS011;29263;48.172;11.484;2024-02-26T12:53:12;2.25;;;0.40;;
43664;SDS011;29263;48.172;11.484;2024-02-26T12:55:38;1.17;;;0.57;;
43664;SDS011;29263;48.172;11.484;2024-02-26T12:58:06;0.63;;;0.50;;
43664;SDS011;29263;48.172;11.484;2024-02-26T13:00:32;2.28;;;0.70;;
43664;SDS011;29263;48.172;11.484;2024-02-26T13:02:59;0.60;;;0.60;;
43664;SDS011;29263;48.172;11.484;2024-02-26T13:05:25;1.25;;;0.50;;
43664;SDS011;29263;48.172;11.484;2024-02-26T13:07:54;1.40;;;0.70;;
43664;SDS011;29263;48.172;11.484;2024-02-26T13:10:26;2.13;;;0.80;;
43664;SDS011;29263;48.172;11.484;2024-02-26T13:12:52;1.85;;;0.50;;
43664;SDS011;29263;48.172;11.484;2024-02-26T13:15:20;2.20;;;0.82;;
43664;SDS011;29263;48.172;11.484;2024-02-26T13:17:47;1.85;;;0.70;;
43664;SDS011;29263;48.172;11.484;2024-02-26T13:20:25;1.35;;;0.75;;
43664;SDS011;29263;48.172;11.484;2024-02-26T13:23:09;0.80;;;0.65;;
43664;SDS011;29263;48.172;11.484;2024-02-26T13:25:37;1.42;;;0.70;;
43664;SDS011;29263;48.172;11.484;2024-02-26T13:28:13;0.90;;;0.70;;
43664;SDS011;29263;48.172;11.484;2024-02-26T13:30:52;1.55;;;0.80;;
43664;SDS011;29263;48.172;11.484;2024-02-26T13:33:19;1.38;;;0.88;;
43664;SDS011;29263;48.172;11.484;2024-02-26T13:35:45;1.80;;;0.43;;
43664;SDS011;29263;48.172;11.484;2024-02-26T13:38:14;1.30;;;0.82;;
43664;SDS011;29263;48.172;11.484;2024-02-26T13:40:43;1.83;;;0.70;;
43664;SDS011;29263;48.172;11.484;2024-02-26T13:43:30;6.75;;;0.90;;
43664;SDS011;29263;48.172;11.484;2024-02-26T13:46:01;0.30;;;0.30;;
43664;SDS011;29263;48.172;11.484;2024-02-26T13:48:30;2.83;;;0.50;;
43664;SDS011;29263;48.172;11.484;2024-02-26T13:50:56;1.17;;;0.60;;
43664;SDS011;29263;48.172;11.484;2024-02-26T13:53:21;0.65;;;0.50;;
43664;SDS011;29263;48.172;11.484;2024-02-26T13:55:49;1.70;;;0.73;;
43664;SDS011;29263;48.172;11.484;2024-02-26T13:58:14;2.15;;;0.50;;
43664;SDS011;29263;48.172;11.484;2024-02-26T14:00:40;0.30;;;0.30;;
43664;SDS011;29263;48.172;11.484;2024-02-26T14:03:41;0.25;;;0.20;;
43664;SDS011;29263;48.172;11.484;2024-02-26T14:06:07;0.70;;;0.40;;
43664;SDS011;29263;48.172;11.484;2024-02-26T14:08:33;2.05;;;0.70;;
43664;SDS011;29263;48.172;11.484;2024-02-26T14:10:59;1.00;;;0.50;;
43664;SDS011;29263;48.172;11.484;2024-02-26T14:13:45;6.32;;;0.50;;
43664;SDS011;29263;48.172;11.484;2024-02-26T14:16:12;0.95;;;0.40;;
43664;SDS011;29263;48.172;11.484;2024-02-26T14:18:38;0.57;;;0.57;;
43664;SDS011;29263;48.172;11.484;2024-02-26T14:21:04;0.68;;;0.52;;
43664;SDS011;29263;48.172;11.484;2024-02-26T14:23:33;0.45;;;0.38;;
43664;SDS011;29263;48.172;11.484;2024-02-26T14:26:02;1.70;;;0.30;;
43664;SDS011;29263;48.172;11.484;2024-02-26T14:28:28;1.02;;;0.70;;
43664;SDS011;29263;48.172;11.484;2024-02-26T14:30:54;0.68;;;0.40;;
43664;SDS011;29263;48.172;11.484;2024-02-26T14:33:20;0.30;;;0.30;;
43664;SDS011;29263;48.172;11.484;2024-02-26T14:35:46;0.60;;;0.40;;
43664;SDS011;29263;48.172;11.484;2024-02-26T14:38:11;0.52;;;0.40;;
43664;SDS011;29263;48.172;11.484;2024-02-26T14:40:37;3.08;;;0.55;;
43664;SDS011;29263;48.172;11.484;2024-02-26T14:43:02;0.73;;;0.68;;
43664;SDS011;29263;48.172;11.484;2024-02-26T14:45:30;0.80;;;0.77;;
43664;SDS011;29263;48.172;11.484;2024-02-26T14:47:55;1.20;;;0.52;;
43664;SDS011;29263;48.172;11.484;2024-02-26T14:50:21;0.93;;;0.57;;
43664;SDS011;29263;48.172;11.484;2024-02-26T14:52:47;1.17;;;0.63;;
43664;SDS011;29263;48.172;11.484;2024-02-26T14:55:13;3.90;;;0.70;;
43664;SDS011;29263;48.172;11.484;2024-02-26T14:57:38;2.58;;;0.60;;
43664;SDS011;29263;48.172;11.484;2024-02-26T15:00:04;0.88;;;0.60;;
43664;SDS011;29263;48.172;11.484;2024-02-26T15:02:32;1.35;;;0.68;;
43664;SDS011;29263;48.172;11.484;2024-02-26T15:04:57;1.58;;;0.80;;
43664;SDS011;29263;48.172;11.484;2024-02-26T15:07:23;2.70;;;0.70;;
43664;SDS011;29263;48.172;11.484;2024-02-26T15:09:48;4.43;;;1.15;;
43664;SDS011;29263;48.172;11.484;2024-02-26T15:12:14;1.38;;;0.90;;
43664;SDS011;29263;48.172;11.484;2024-02-26T15:14:42;3.25;;;1.27;;
43664;SDS011;29263;48.172;11.484;2024-02-26T15:17:09;2.55;;;1.08;;
43664;SDS011;29263;48.172;11.484;2024-02-26T15:19:38;4.32;;;0.98;;
43664;SDS011;29263;48.172;11.484;2024-02-26T15:22:04;1.65;;;0.88;;